Time;durP1;ratioP1;P1;durP2;ratioP2;P2;SDS_P1;SDS_P2;PMS_P1;PMS_P2;Temp;Humidity;BMP_temperature;BMP_pressure;BME280_temperature;BME280_humidity;BME280_pressure;Samples;Min_cycle;Max_cycle;Signal;HPM_P1;HPM_P2
2021/06/23 00:01:09;;;;;;;10.73;9.63;;;;;;;15.52;100.00;100908.78;5040161;28;20231;-80
2021/06/23 00:03:35;;;;;;;11.20;8.83;;;;;;;15.69;100.00;100902.84;5041159;28;20238;-79
2021/06/23 00:06:02;;;;;;;10.80;8.03;;;;;;;15.80;100.00;100905.88;5039756;28;20211;-79
2021/06/23 00:08:28;;;;;;;10.07;8.83;;;;;;;15.73;100.00;100901.78;5043596;28;20244;-79
2021/06/23 00:10:55;;;;;;;11.97;9.17;;;;;;;15.78;100.00;100904.25;5041433;28;20223;-79
2021/06/23 00:13:23;;;;;;;11.57;9.80;;;;;;;15.56;100.00;100899.84;5040900;28;20317;-79
2021/06/23 00:15:50;;;;;;;10.70;9.07;;;;;;;15.47;100.00;100900.25;5042341;28;20402;-79
2021/06/23 00:18:16;;;;;;;12.17;9.37;;;;;;;15.52;100.00;100904.38;5041408;28;20199;-79
2021/06/23 00:20:43;;;;;;;11.40;9.47;;;;;;;15.62;100.00;100904.88;5041013;28;20215;-79
2021/06/23 00:23:09;;;;;;;11.10;9.60;;;;;;;15.63;100.00;100909.19;5043588;28;20275;-79
2021/06/23 00:25:35;;;;;;;11.03;9.57;;;;;;;15.39;100.00;100911.09;5039308;28;20203;-79
2021/06/23 00:28:02;;;;;;;10.83;9.20;;;;;;;15.63;100.00;100919.69;5040195;28;20304;-79
2021/06/23 00:30:30;;;;;;;11.77;9.97;;;;;;;15.64;100.00;100917.94;5038772;28;20207;-79
2021/06/23 00:33:05;;;;;;;12.33;9.23;;;;;;;15.67;100.00;100915.16;5036145;28;20231;-79
2021/06/23 00:35:31;;;;;;;10.03;9.03;;;;;;;15.63;100.00;100911.81;5037685;28;20212;-79
2021/06/23 00:37:58;;;;;;;10.03;8.63;;;;;;;15.60;100.00;100914.59;5040628;28;20300;-79
2021/06/23 00:40:24;;;;;;;12.00;9.70;;;;;;;15.44;100.00;100926.66;5036774;28;20209;-79
2021/06/23 00:42:52;;;;;;;11.07;9.17;;;;;;;15.40;100.00;100923.28;5044236;28;20697;-80
2021/06/23 00:45:20;;;;;;;11.70;9.07;;;;;;;15.56;100.00;100922.66;5024719;28;20213;-79
2021/06/23 00:47:50;;;;;;;8.97;8.07;;;;;;;15.57;100.00;100927.00;5047479;28;20760;-79
2021/06/23 00:50:19;;;;;;;10.33;9.23;;;;;;;15.56;100.00;100934.00;5037695;28;20211;-79
2021/06/23 00:52:55;;;;;;;9.43;8.53;;;;;;;15.48;100.00;100949.28;5027877;28;20229;-79
2021/06/23 00:55:33;;;;;;;10.53;9.37;;;;;;;15.52;100.00;100966.59;5039948;28;20633;-79
2021/06/23 00:57:59;;;;;;;9.90;8.73;;;;;;;15.52;100.00;100966.59;5048965;28;20595;-79
2021/06/23 01:00:30;;;;;;;9.97;8.87;;;;;;;15.59;100.00;100965.44;5040010;28;20216;-80
2021/06/23 01:03:02;;;;;;;11.63;10.23;;;;;;;15.53;100.00;100966.53;5042337;28;20605;-79
2021/06/23 01:05:31;;;;;;;11.43;8.97;;;;;;;15.74;100.00;100963.06;5010064;28;20206;-79
2021/06/23 01:07:58;;;;;;;12.30;10.43;;;;;;;15.78;100.00;100964.72;5022136;28;20300;-79
2021/06/23 01:10:28;;;;;;;12.50;10.47;;;;;;;15.69;100.00;100969.38;5036832;28;20228;-79
2021/06/23 01:13:17;;;;;;;13.47;10.57;;;;;;;15.81;100.00;100961.94;5026866;28;20235;-79
2021/06/23 01:15:45;;;;;;;11.30;10.10;;;;;;;15.86;100.00;100971.31;5025605;28;20578;-79
2021/06/23 01:18:13;;;;;;;16.43;12.37;;;;;;;15.90;100.00;100972.91;5040771;28;21045;-80
2021/06/23 01:20:42;;;;;;;13.10;10.93;;;;;;;15.86;100.00;100971.31;5022098;28;20297;-79
2021/06/23 01:23:10;;;;;;;13.40;12.00;;;;;;;15.95;100.00;100972.69;5041513;28;20711;-79
2021/06/23 01:25:37;;;;;;;15.03;10.93;;;;;;;15.97;100.00;100954.22;5041903;28;20687;-79
2021/06/23 01:28:04;;;;;;;11.80;10.37;;;;;;;15.86;100.00;100952.06;5039415;28;20435;-79
2021/06/23 01:30:38;;;;;;;11.90;10.50;;;;;;;15.98;100.00;100942.81;5022383;28;20711;-79
2021/06/23 01:33:20;;;;;;;13.63;10.50;;;;;;;16.06;100.00;100941.53;5014396;28;20226;-79
2021/06/23 01:35:48;;;;;;;12.70;10.87;;;;;;;16.05;100.00;100936.34;5030978;28;20240;-79
2021/06/23 01:38:16;;;;;;;13.43;11.20;;;;;;;16.03;100.00;100940.81;5023324;28;20724;-79
2021/06/23 01:40:42;;;;;;;14.70;11.73;;;;;;;16.03;100.00;100944.31;5024720;28;20233;-79
2021/06/23 01:43:09;;;;;;;13.70;10.90;;;;;;;15.99;100.00;100944.50;5044230;28;20202;-79
2021/06/23 01:45:37;;;;;;;13.77;11.17;;;;;;;15.95;100.00;100942.94;5045840;28;20241;-79
2021/06/23 01:48:06;;;;;;;12.40;10.43;;;;;;;15.98;100.00;100943.66;5022927;28;20213;-79
2021/06/23 01:50:34;;;;;;;12.57;11.10;;;;;;;15.98;100.00;100943.66;5029100;28;20722;-79
2021/06/23 01:53:02;;;;;;;14.40;11.53;;;;;;;15.89;100.00;100938.78;5042135;28;20313;-79
2021/06/23 01:55:31;;;;;;;12.70;11.00;;;;;;;15.94;100.00;100936.81;5046404;28;20221;-79
2021/06/23 01:58:05;;;;;;;12.37;10.83;;;;;;;15.85;100.00;100947.75;5024647;28;20199;-79
2021/06/23 02:00:49;;;;;;;11.17;9.90;;;;;;;16.02;100.00;100957.50;5044721;28;20223;-79
2021/06/23 02:03:18;;;;;;;12.83;10.57;;;;;;;16.01;100.00;100958.47;5040023;28;20222;-79
2021/06/23 02:05:58;;;;;;;11.33;10.13;;;;;;;16.03;100.00;100959.25;5043273;28;20482;-79
2021/06/23 02:08:37;;;;;;;12.40;11.03;;;;;;;16.00;100.00;100964.63;5042840;28;20206;-79
2021/06/23 02:11:29;;;;;;;11.57;9.43;;;;;;;16.08;100.00;100959.91;5023705;28;20219;-79
2021/06/23 02:14:40;;;;;;;13.53;11.10;;;;;;;16.06;100.00;100962.59;5043983;28;20209;-79
2021/06/23 02:17:39;;;;;;;12.63;10.83;;;;;;;16.05;100.00;100960.03;5002355;28;20221;-79
2021/06/23 02:20:18;;;;;;;12.47;10.43;;;;;;;16.07;100.00;100968.69;5025155;28;20601;-79
2021/06/23 02:22:46;;;;;;;12.80;10.47;;;;;;;16.13;100.00;100962.31;5042902;28;20195;-79
2021/06/23 02:25:17;;;;;;;13.10;11.70;;;;;;;16.14;100.00;100974.53;5033284;28;20280;-79
2021/06/23 02:27:53;;;;;;;11.57;10.13;;;;;;;16.17;100.00;100983.16;5023197;28;20302;-79
2021/06/23 02:30:19;;;;;;;11.93;10.60;;;;;;;16.37;100.00;100987.53;5022228;28;20706;-79
2021/06/23 02:32:55;;;;;;;12.33;10.33;;;;;;;16.22;100.00;100988.22;5041013;28;20264;-79
2021/06/23 02:35:27;;;;;;;13.00;10.60;;;;;;;16.12;100.00;100976.41;5025287;28;20206;-79
2021/06/23 02:37:58;;;;;;;12.10;10.80;;;;;;;16.13;100.00;100973.69;5041935;28;20196;-79
2021/06/23 02:40:26;;;;;;;14.07;10.23;;;;;;;16.17;100.00;100972.63;5043509;28;20242;-79
2021/06/23 02:43:01;;;;;;;10.50;9.27;;;;;;;16.17;100.00;100975.25;5042810;28;20588;-79
2021/06/23 02:45:29;;;;;;;12.67;10.70;;;;;;;16.15;100.00;100968.38;5041780;28;20249;-79
2021/06/23 02:47:57;;;;;;;11.17;9.30;;;;;;;16.13;100.00;100975.44;5024397;28;20203;-79
2021/06/23 02:50:42;;;;;;;12.10;9.40;;;;;;;16.14;100.00;100964.03;5023615;28;20227;-79
2021/06/23 02:53:20;;;;;;;9.97;8.70;;;;;;;16.15;100.00;100961.34;5039897;28;20217;-79
2021/06/23 02:59:36;;;;;;;11.40;8.77;;;;;;;16.17;100.00;100958.63;5040074;28;20195;-79
2021/06/23 03:02:05;;;;;;;11.67;9.47;;;;;;;16.09;100.00;100954.56;5043517;28;20444;-79
2021/06/23 03:04:32;;;;;;;11.67;9.60;;;;;;;16.06;100.00;100954.69;5043218;28;20309;-79
2021/06/23 03:07:10;;;;;;;11.07;9.17;;;;;;;16.07;100.00;100971.31;5043895;28;20609;-79
2021/06/23 03:09:38;;;;;;;10.80;8.87;;;;;;;16.11;100.00;100956.25;5028750;28;20261;-79
2021/06/23 03:12:18;;;;;;;11.37;9.50;;;;;;;15.98;100.00;100967.31;5027715;28;20248;-79
2021/06/23 03:15:06;;;;;;;12.00;9.03;;;;;;;15.98;100.00;100967.31;5038598;28;20488;-79
2021/06/23 03:17:32;;;;;;;11.90;9.30;;;;;;;16.09;100.00;100964.22;5021662;28;20204;-79
2021/06/23 03:20:05;;;;;;;10.47;8.67;;;;;;;16.16;100.00;100973.53;5026393;28;20294;-79
2021/06/23 03:22:34;;;;;;;14.80;9.00;;;;;;;16.14;100.00;100969.28;5026304;28;20282;-79
2021/06/23 03:25:01;;;;;;;11.23;8.93;;;;;;;16.15;100.00;100977.13;5025344;28;20210;-79
2021/06/23 03:27:28;;;;;;;10.40;9.23;;;;;;;16.25;100.00;100980.19;5028061;28;20254;-79
2021/06/23 03:29:55;;;;;;;10.70;9.27;;;;;;;16.17;100.00;100984.94;5038548;28;20577;-79
2021/06/23 03:32:23;;;;;;;12.43;9.67;;;;;;;16.14;100.00;100985.06;5030524;28;20272;-79
2021/06/23 03:34:50;;;;;;;13.03;10.07;;;;;;;16.09;100.00;100988.75;5016856;28;20198;-79
2021/06/23 03:37:17;;;;;;;14.13;10.03;;;;;;;16.04;100.00;100996.00;5043928;28;20577;-79
2021/06/23 03:39:44;;;;;;;14.23;9.93;;;;;;;16.02;100.00;101004.84;5041781;28;20633;-79
2021/06/23 03:42:11;;;;;;;11.70;9.87;;;;;;;16.00;100.00;101004.91;5044182;28;20284;-79
2021/06/23 03:44:39;;;;;;;12.17;10.40;;;;;;;15.95;100.00;101012.13;5042161;28;20217;-79
2021/06/23 03:47:06;;;;;;;12.83;9.90;;;;;;;15.96;100.00;101015.66;5051177;28;20216;-79
2021/06/23 03:49:37;;;;;;;12.97;10.23;;;;;;;15.92;100.00;101017.56;5042531;28;20237;-79
2021/06/23 03:52:04;;;;;;;14.43;10.63;;;;;;;15.84;100.00;101020.47;5042528;28;20230;-79
2021/06/23 03:54:31;;;;;;;12.93;10.93;;;;;;;15.99;100.00;101008.47;5023608;28;20203;-79
2021/06/23 03:57:00;;;;;;;16.13;11.07;;;;;;;15.98;100.00;101019.06;5025472;28;20207;-79
2021/06/23 03:59:26;;;;;;;12.73;10.67;;;;;;;15.90;100.00;101016.78;5040996;28;20206;-79
2021/06/23 04:01:55;;;;;;;17.47;10.77;;;;;;;15.98;100.00;101022.53;5047403;28;20229;-79
2021/06/23 04:04:22;;;;;;;14.13;11.10;;;;;;;15.99;100.00;101028.63;5042111;28;20301;-79
2021/06/23 04:07:08;;;;;;;13.57;11.60;;;;;;;15.94;100.00;101033.28;5041794;28;20680;-79
2021/06/23 04:09:35;;;;;;;14.23;11.17;;;;;;;16.00;100.00;101033.00;5041779;28;20214;-79
2021/06/23 04:12:06;;;;;;;13.87;10.73;;;;;;;16.15;100.00;101026.25;5041304;28;20273;-79
2021/06/23 04:14:44;;;;;;;14.30;11.87;;;;;;;16.21;100.00;101032.06;5024709;28;20337;-79
2021/06/23 04:17:11;;;;;;;16.07;11.87;;;;;;;16.24;100.00;101031.94;5020547;28;20207;-79
2021/06/23 04:19:37;;;;;;;14.57;11.17;;;;;;;16.26;100.00;101038.00;5026646;28;20626;-79
2021/06/23 04:22:06;;;;;;;13.50;11.43;;;;;;;16.32;100.00;101042.13;5023589;28;20242;-79
2021/06/23 04:24:34;;;;;;;12.33;10.70;;;;;;;16.46;100.00;101045.03;5041538;28;20231;-79
2021/06/23 04:27:04;;;;;;;14.60;11.53;;;;;;;16.53;100.00;101052.63;5017190;28;20203;-79
2021/06/23 04:29:34;;;;;;;14.73;12.37;;;;;;;16.49;100.00;101048.44;5039987;28;20307;-79
2021/06/23 04:32:02;;;;;;;13.33;11.63;;;;;;;16.57;100.00;101048.94;5038310;28;20261;-79
2021/06/23 04:34:30;;;;;;;14.80;11.20;;;;;;;16.63;100.00;101057.44;5042450;28;20263;-79
2021/06/23 04:37:09;;;;;;;15.33;12.07;;;;;;;16.75;100.00;101065.72;5045207;28;20205;-79
2021/06/23 04:39:37;;;;;;;18.63;11.30;;;;;;;16.82;99.94;101065.34;5024755;28;20210;-79
2021/06/23 04:42:10;;;;;;;13.27;10.67;;;;;;;16.87;98.55;101065.19;5020113;28;20346;-79
2021/06/23 04:44:39;;;;;;;12.43;10.57;;;;;;;17.01;97.62;101061.94;5032727;28;20207;-79
2021/06/23 04:47:05;;;;;;;12.20;9.90;;;;;;;17.10;97.25;101055.38;5024082;28;20219;-79
2021/06/23 04:49:32;;;;;;;12.63;9.77;;;;;;;17.20;96.04;101057.50;5024903;28;20537;-79
2021/06/23 04:52:15;;;;;;;11.17;8.53;;;;;;;17.15;93.28;101070.03;5038768;28;20368;-79
2021/06/23 04:54:43;;;;;;;9.30;7.77;;;;;;;17.23;92.75;101070.53;5047628;28;20257;-79
2021/06/23 04:57:10;;;;;;;9.47;7.70;;;;;;;17.31;90.62;101079.88;5029664;28;20564;-79
2021/06/23 04:59:37;;;;;;;10.67;7.10;;;;;;;17.37;89.83;101082.19;5040330;28;20502;-79
2021/06/23 05:02:04;;;;;;;9.87;7.17;;;;;;;17.48;89.45;101089.59;5018326;28;20222;-79
2021/06/23 05:04:33;;;;;;;9.63;6.90;;;;;;;17.45;88.33;101080.06;5019597;28;20203;-79
2021/06/23 05:07:02;;;;;;;7.40;6.43;;;;;;;17.47;87.08;101078.22;5020721;28;20234;-79
2021/06/23 05:09:28;;;;;;;7.80;6.20;;;;;;;17.46;87.25;101076.50;5041336;28;20256;-79
2021/06/23 05:11:56;;;;;;;7.87;6.33;;;;;;;17.58;87.05;101082.97;5040733;28;20221;-79
2021/06/23 05:14:22;;;;;;;7.47;6.30;;;;;;;17.69;84.96;101087.72;5039487;28;20227;-79
2021/06/23 05:16:51;;;;;;;7.20;5.97;;;;;;;17.81;84.64;101087.13;5028400;28;20203;-80
2021/06/23 05:19:18;;;;;;;7.53;6.00;;;;;;;18.08;84.81;101091.97;5042084;28;20218;-79
2021/06/23 05:21:45;;;;;;;8.47;6.00;;;;;;;18.09;82.64;101089.25;5045782;28;20214;-80
2021/06/23 05:24:11;;;;;;;7.03;5.23;;;;;;;18.16;82.80;101092.47;5040086;28;20623;-79
2021/06/23 05:26:38;;;;;;;8.30;5.27;;;;;;;18.17;81.86;101107.38;5049185;28;20683;-79
2021/06/23 05:29:06;;;;;;;7.70;5.70;;;;;;;18.12;80.65;101115.50;5043854;28;20211;-80
2021/06/23 05:31:33;;;;;;;7.00;5.27;;;;;;;18.20;81.33;101122.19;5047660;28;20234;-80
2021/06/23 05:33:59;;;;;;;7.70;5.60;;;;;;;18.24;81.38;101129.00;5045196;28;20596;-80
2021/06/23 05:36:26;;;;;;;7.60;5.87;;;;;;;18.32;82.66;101132.13;5049933;28;20246;-79
2021/06/23 05:38:53;;;;;;;12.47;5.23;;;;;;;18.31;81.19;101141.84;5046781;28;20195;-78
2021/06/23 05:41:20;;;;;;;8.33;5.03;;;;;;;18.33;81.55;101133.84;5049616;28;20222;-78
2021/06/23 05:43:47;;;;;;;8.07;5.17;;;;;;;18.31;81.26;101146.25;5047252;28;20900;-78
2021/06/23 05:46:14;;;;;;;7.67;5.27;;;;;;;18.45;82.94;101138.50;5051295;28;20207;-78
2021/06/23 05:48:41;;;;;;;6.93;5.37;;;;;;;18.43;80.68;101142.97;5045798;28;20299;-79
2021/06/23 05:51:07;;;;;;;6.13;5.07;;;;;;;18.47;80.57;101143.72;5044868;28;20867;-79
2021/06/23 05:53:34;;;;;;;5.87;4.47;;;;;;;18.51;79.63;101140.81;5046366;28;20213;-80
2021/06/23 05:56:00;;;;;;;7.57;4.73;;;;;;;18.70;80.31;101137.22;5050085;28;20238;-81
2021/06/23 05:58:27;;;;;;;6.03;5.03;;;;;;;18.98;79.87;101141.06;5046095;28;20214;-81
2021/06/23 06:00:53;;;;;;;6.37;4.87;;;;;;;19.07;78.31;101149.38;5046547;28;20251;-78
2021/06/23 06:03:21;;;;;;;5.60;4.47;;;;;;;19.02;76.06;101143.47;5046077;28;20214;-79
2021/06/23 06:05:47;;;;;;;7.10;4.80;;;;;;;19.09;75.72;101147.50;5052821;28;20210;-79
2021/06/23 06:08:14;;;;;;;10.73;4.33;;;;;;;19.29;75.01;101140.28;5051269;28;20222;-79
2021/06/23 06:10:40;;;;;;;5.90;4.47;;;;;;;19.68;76.32;101139.00;5050110;28;20447;-79
2021/06/23 06:13:07;;;;;;;8.73;4.40;;;;;;;19.79;73.51;101146.41;5048166;28;20223;-79
2021/06/23 06:15:34;;;;;;;5.80;3.40;;;;;;;19.86;73.08;101148.59;5050743;28;20295;-79
2021/06/23 06:18:01;;;;;;;6.50;3.23;;;;;;;20.03;71.46;101144.13;5051256;28;20453;-79
2021/06/23 06:20:29;;;;;;;6.63;3.47;;;;;;;19.97;71.73;101149.78;5050446;28;20574;-78
2021/06/23 06:22:55;;;;;;;7.17;3.83;;;;;;;20.05;72.06;101150.16;5050828;28;20200;-78
2021/06/23 06:25:22;;;;;;;6.07;3.27;;;;;;;20.04;71.08;101157.25;5048513;28;20196;-78
2021/06/23 06:27:48;;;;;;;7.80;3.83;;;;;;;19.83;70.89;101166.44;5036230;28;20293;-79
2021/06/23 06:30:16;;;;;;;6.13;3.77;;;;;;;20.08;72.50;101168.53;5050640;28;20199;-78
2021/06/23 06:32:42;;;;;;;5.70;3.87;;;;;;;20.04;70.49;101162.56;5049092;28;20673;-79
2021/06/23 06:35:10;;;;;;;5.97;3.83;;;;;;;20.22;71.14;101163.28;5033366;28;20812;-79
2021/06/23 06:37:37;;;;;;;5.17;3.83;;;;;;;20.33;71.09;101162.66;5048998;28;20692;-79
2021/06/23 06:40:05;;;;;;;5.13;3.40;;;;;;;20.39;70.33;101166.75;5049831;28;20213;-79
2021/06/23 06:42:31;;;;;;;3.80;2.90;;;;;;;20.38;69.75;101167.69;5033544;28;20696;-79
2021/06/23 06:44:58;;;;;;;4.57;3.00;;;;;;;20.52;71.51;101164.22;5050182;28;20286;-79
2021/06/23 06:47:24;;;;;;;6.10;2.90;;;;;;;20.53;67.38;101172.09;5029376;28;20199;-79
2021/06/23 06:49:50;;;;;;;6.10;2.80;;;;;;;20.55;67.26;101180.78;5046344;28;20211;-79
2021/06/23 06:52:17;;;;;;;3.10;2.63;;;;;;;20.49;68.26;101175.00;5049286;28;20235;-79
2021/06/23 06:54:45;;;;;;;4.30;2.73;;;;;;;20.46;69.10;101177.84;5045398;28;20253;-80
2021/06/23 06:57:11;;;;;;;3.23;2.50;;;;;;;20.37;67.37;101174.78;5032760;28;20295;-79
2021/06/23 06:59:38;;;;;;;4.73;2.63;;;;;;;20.40;68.56;101174.63;5046350;28;20215;-80
2021/06/23 07:02:05;;;;;;;3.57;2.60;;;;;;;20.54;67.79;101179.06;5048930;28;20218;-79
2021/06/23 07:04:31;;;;;;;2.70;2.50;;;;;;;20.56;67.57;101177.22;5047204;28;20198;-80
2021/06/23 07:06:57;;;;;;;4.50;2.77;;;;;;;20.53;67.87;101182.69;5048316;28;20446;-80
2021/06/23 07:09:24;;;;;;;4.87;2.93;;;;;;;20.56;67.22;101174.56;5045612;28;20800;-79
2021/06/23 07:11:52;;;;;;;4.17;2.80;;;;;;;20.52;66.36;101175.66;5047348;28;20290;-79
2021/06/23 07:14:20;;;;;;;4.60;2.80;;;;;;;20.65;67.51;101173.19;5044170;28;20310;-79
2021/06/23 07:16:47;;;;;;;3.90;2.60;;;;;;;20.80;66.87;101169.59;5050338;28;20194;-79
2021/06/23 07:19:13;;;;;;;3.63;2.47;;;;;;;20.89;64.89;101178.78;5047977;28;20209;-79
2021/06/23 07:21:39;;;;;;;3.57;2.40;;;;;;;20.92;66.50;101178.59;5049071;28;20223;-79
2021/06/23 07:24:06;;;;;;;3.33;2.73;;;;;;;20.90;64.78;101187.63;5046255;28;20238;-80
2021/06/23 07:26:33;;;;;;;4.43;2.60;;;;;;;21.01;67.10;101179.84;5047752;28;20470;-80
2021/06/23 07:29:02;;;;;;;4.97;2.57;;;;;;;21.06;63.73;101187.53;5045040;28;20207;-80
2021/06/23 07:31:38;;;;;;;3.27;2.70;;;;;;;21.09;66.21;101182.88;5029827;28;20223;-80
2021/06/23 07:34:19;;;;;;;3.57;2.80;;;;;;;21.20;66.91;101190.19;5043764;28;20223;-80
2021/06/23 07:36:47;;;;;;;3.10;2.40;;;;;;;21.29;64.31;101202.00;5046399;28;20267;-79
2021/06/23 07:39:16;;;;;;;3.80;2.33;;;;;;;21.51;67.75;101194.44;5044290;28;20203;-79
2021/06/23 07:41:44;;;;;;;4.13;2.90;;;;;;;21.59;65.94;101199.25;5048364;28;20242;-79
2021/06/23 07:44:14;;;;;;;4.10;2.47;;;;;;;21.51;67.20;101202.41;5046872;28;20677;-79
2021/06/23 07:46:46;;;;;;;4.93;2.87;;;;;;;21.52;64.41;101201.44;5047093;28;20591;-79
2021/06/23 07:49:14;;;;;;;6.20;2.90;;;;;;;21.55;65.18;101189.81;5045947;28;20238;-79
2021/06/23 07:51:46;;;;;;;3.17;2.90;;;;;;;21.60;61.91;101200.09;5049055;28;20491;-79
2021/06/23 07:54:21;;;;;;;3.60;2.77;;;;;;;21.67;62.82;101194.31;5045247;28;20264;-79
2021/06/23 08:10:28;;;;;;;6.17;2.93;;;;;;;21.83;61.40;101182.69;5029510;28;20603;-80
2021/06/23 08:12:56;;;;;;;4.27;2.70;;;;;;;21.87;61.29;101176.28;5045123;28;20298;-80
2021/06/23 08:15:26;;;;;;;4.77;2.90;;;;;;;22.09;64.43;101165.94;5046814;28;20234;-80
2021/06/23 08:17:52;;;;;;;4.38;3.10;;;;;;;22.39;64.00;101164.00;5045679;28;20233;-80
2021/06/23 08:20:19;;;;;;;4.20;2.83;;;;;;;22.42;60.20;101175.28;5037083;28;20222;-79
2021/06/23 08:22:45;;;;;;;5.32;2.92;;;;;;;22.39;59.45;101180.81;5044872;28;20214;-79
2021/06/23 08:25:13;;;;;;;4.72;2.83;;;;;;;22.36;59.65;101175.72;5056711;28;20294;-78
2021/06/23 08:27:40;;;;;;;3.95;2.85;;;;;;;22.32;59.72;101179.50;5044495;28;20206;-79
2021/06/23 08:30:08;;;;;;;3.13;2.58;;;;;;;22.13;60.21;101172.75;5057350;28;20223;-79
2021/06/23 08:32:36;;;;;;;3.30;2.35;;;;;;;22.24;57.91;101182.66;5042895;28;20497;-79
2021/06/23 08:35:03;;;;;;;2.75;2.40;;;;;;;22.16;59.86;101171.69;5049829;28;20313;-79
2021/06/23 08:37:29;;;;;;;6.43;3.03;;;;;;;22.29;62.30;101175.25;5045318;28;20205;-79
2021/06/23 08:39:56;;;;;;;3.75;2.67;;;;;;;22.29;59.66;101185.03;5053829;28;20227;-78
2021/06/23 08:42:23;;;;;;;5.25;2.90;;;;;;;22.25;58.04;101187.03;5045395;28;20215;-79
2021/06/23 08:44:50;;;;;;;3.28;2.53;;;;;;;22.30;60.08;101187.59;5051977;28;20302;-79
2021/06/23 08:47:16;;;;;;;6.88;4.50;;;;;;;22.11;59.53;101176.47;5027877;28;20206;-79
2021/06/23 08:49:46;;;;;;;6.05;4.53;;;;;;;22.24;61.66;101174.69;5048771;28;20202;-78
2021/06/23 08:52:13;;;;;;;5.00;3.05;;;;;;;22.38;59.00;101180.94;5043858;28;20223;-79
2021/06/23 08:54:40;;;;;;;3.78;2.90;;;;;;;22.49;61.83;101173.06;5048514;28;20775;-78
2021/06/23 08:57:08;;;;;;;5.32;2.85;;;;;;;22.55;57.72;101185.09;5045087;28;20215;-78
2021/06/23 08:59:35;;;;;;;4.80;3.15;;;;;;;22.62;63.64;101179.25;5046886;28;20207;-79
2021/06/23 09:02:02;;;;;;;4.80;3.10;;;;;;;22.58;59.94;101190.19;5044792;28;20310;-78
2021/06/23 09:04:29;;;;;;;3.40;3.10;;;;;;;22.69;62.58;101187.69;5055317;28;20298;-79
2021/06/23 09:06:59;;;;;;;3.05;2.72;;;;;;;22.82;58.18;101190.34;5045017;28;20297;-78
2021/06/23 09:09:26;;;;;;;3.65;3.20;;;;;;;22.64;58.88;101192.44;5047367;28;20239;-78
2021/06/23 09:11:55;;;;;;;3.80;2.90;;;;;;;22.90;58.13;101203.09;5047164;28;20231;-78
2021/06/23 09:14:23;;;;;;;3.92;2.88;;;;;;;23.00;57.20;101196.19;5051347;28;20718;-79
2021/06/23 09:17:17;;;;;;;4.45;2.83;;;;;;;23.15;56.98;101204.94;5047811;28;20204;-80
2021/06/23 09:19:46;;;;;;;3.67;2.80;;;;;;;23.26;58.33;101197.03;5004529;28;20203;-80
2021/06/23 09:22:34;;;;;;;5.05;2.90;;;;;;;23.38;59.91;101200.66;5052834;28;20229;-81
2021/06/23 09:25:01;;;;;;;3.67;3.00;;;;;;;23.54;56.17;101211.06;5025760;28;20793;-80
2021/06/23 09:27:29;;;;;;;3.17;2.63;;;;;;;23.63;53.63;101215.69;5047513;28;20552;-81
2021/06/23 09:30:24;;;;;;;3.22;2.90;;;;;;;24.00;53.78;101213.06;5044457;28;20218;-80
2021/06/23 09:33:09;;;;;;;6.20;2.60;;;;;;;24.19;50.93;101212.56;5052018;28;20306;-80
2021/06/23 09:35:36;;;;;;;2.97;2.60;;;;;;;24.19;50.98;101218.72;5026972;28;20223;-80
2021/06/23 09:38:04;;;;;;;4.47;2.72;;;;;;;23.88;52.33;101212.13;5047414;28;20669;-80
2021/06/23 09:40:32;;;;;;;3.58;2.90;;;;;;;23.81;51.72;101216.22;5027261;28;20269;-81
2021/06/23 09:43:01;;;;;;;2.80;2.60;;;;;;;23.74;52.21;101220.25;5046728;28;20207;-80
2021/06/23 09:45:30;;;;;;;3.95;2.70;;;;;;;23.67;52.81;101216.34;5027313;28;20268;-80
2021/06/23 09:47:59;;;;;;;4.18;2.53;;;;;;;23.75;52.61;101214.81;5031752;28;20199;-80
2021/06/23 09:50:27;;;;;;;4.28;2.60;;;;;;;23.64;52.22;101220.09;5048014;28;20231;-80
2021/06/23 09:52:56;;;;;;;3.05;2.72;;;;;;;23.47;52.14;101228.41;5040770;28;20697;-80
2021/06/23 09:55:34;;;;;;;4.97;3.15;;;;;;;23.50;52.94;101214.88;5039183;28;20211;-81
2021/06/23 09:58:09;;;;;;;3.88;2.75;;;;;;;23.42;52.43;101212.78;5044327;28;20261;-80
2021/06/23 10:00:58;;;;;;;2.72;2.53;;;;;;;23.45;51.88;101201.91;5023495;28;20443;-79
2021/06/23 10:03:25;;;;;;;3.65;3.03;;;;;;;23.67;54.53;101197.69;5040319;28;20217;-79
2021/06/23 10:05:51;;;;;;;4.05;2.92;;;;;;;23.95;50.93;101208.06;5049790;28;20199;-79
2021/06/23 10:08:22;;;;;;;5.28;4.25;;;;;;;24.12;50.77;101212.16;5044370;28;20298;-79
2021/06/23 10:10:50;;;;;;;3.75;2.92;;;;;;;24.19;53.22;101210.72;5046323;28;20229;-79
2021/06/23 10:13:18;;;;;;;4.38;2.90;;;;;;;24.27;53.45;101204.81;5045454;28;20229;-79
2021/06/23 10:15:45;;;;;;;3.20;2.90;;;;;;;24.00;51.94;101213.06;5044495;28;20705;-79
2021/06/23 10:18:12;;;;;;;3.92;3.00;;;;;;;23.73;57.01;101197.28;5043284;28;20662;-79
2021/06/23 10:20:39;;;;;;;3.58;2.90;;;;;;;23.67;55.98;101203.03;5046189;28;20694;-79
2021/06/23 10:23:06;;;;;;;3.92;3.17;;;;;;;23.42;56.29;101197.66;5047325;28;20203;-79
2021/06/23 10:25:33;;;;;;;5.90;3.40;;;;;;;23.24;57.45;101205.13;5054028;28;20195;-80
2021/06/23 10:28:02;;;;;;;4.38;3.20;;;;;;;23.01;58.45;101197.91;5041555;28;20203;-80
2021/06/23 10:30:30;;;;;;;3.30;2.85;;;;;;;22.83;55.80;101210.63;5046570;28;20440;-80
2021/06/23 10:32:58;;;;;;;3.83;2.85;;;;;;;22.71;58.81;101204.38;5043803;28;20211;-79
2021/06/23 10:35:26;;;;;;;5.35;3.03;;;;;;;22.57;57.39;101212.44;5050104;28;20221;-80
2021/06/23 10:37:53;;;;;;;6.30;3.35;;;;;;;22.45;56.40;101217.59;5043874;28;20674;-81
2021/06/23 10:40:21;;;;;;;3.40;2.88;;;;;;;22.43;56.95;101218.66;5046947;28;20207;-80
2021/06/23 10:42:48;;;;;;;4.18;3.17;;;;;;;22.34;60.03;101211.28;5026619;28;20693;-79
2021/06/23 10:45:16;;;;;;;3.60;2.88;;;;;;;22.38;60.85;101203.00;5030027;28;20289;-80
2021/06/23 10:47:45;;;;;;;6.60;3.20;;;;;;;22.43;62.09;101208.03;5046154;28;20214;-79
2021/06/23 10:50:30;;;;;;;4.95;3.10;;;;;;;22.42;63.24;101208.97;5049223;28;20196;-80
2021/06/23 10:52:57;;;;;;;4.00;2.78;;;;;;;22.33;59.50;101218.41;5043377;28;20203;-80
2021/06/23 10:55:44;;;;;;;3.50;3.20;;;;;;;22.28;61.53;101212.53;5050431;28;20237;-80
2021/06/23 10:58:12;;;;;;;3.72;3.22;;;;;;;22.27;59.39;101214.38;5027400;28;20265;-80
2021/06/23 11:00:44;;;;;;;5.22;2.97;;;;;;;22.25;58.42;101215.38;5045770;28;20216;-79
2021/06/23 11:03:14;;;;;;;4.20;3.00;;;;;;;22.27;58.46;101221.47;5035615;28;20203;-80
2021/06/23 11:05:52;;;;;;;4.85;3.00;;;;;;;22.36;57.58;101215.56;5042345;28;20207;-79
2021/06/23 11:08:24;;;;;;;3.92;3.13;;;;;;;22.56;58.45;101213.38;5045609;28;20298;-79
2021/06/23 11:10:51;;;;;;;3.47;2.80;;;;;;;22.82;57.14;101215.09;5041331;28;21003;-79
2021/06/23 11:13:19;;;;;;;3.17;2.80;;;;;;;22.87;56.62;101217.44;5044059;28;20203;-78
2021/06/23 11:15:49;;;;;;;4.97;3.20;;;;;;;22.86;56.79;101221.91;5044863;28;20727;-79
2021/06/23 11:18:23;;;;;;;3.13;2.80;;;;;;;22.90;56.96;101213.72;5045616;28;20618;-79
2021/06/23 11:20:51;;;;;;;4.35;3.10;;;;;;;22.81;57.57;101213.41;5043862;28;20227;-80
2021/06/23 11:23:58;;;;;;;4.72;3.20;;;;;;;22.75;57.04;101220.94;5047114;28;20203;-80
2021/06/23 11:26:53;;;;;;;3.67;3.28;;;;;;;22.69;56.27;101222.22;5037548;28;20202;-80
2021/06/23 11:29:28;;;;;;;3.10;2.80;;;;;;;22.76;55.66;101225.28;5043017;28;20207;-80
2021/06/23 11:32:03;;;;;;;3.67;2.88;;;;;;;22.86;55.13;101229.03;5045549;28;20226;-80
2021/06/23 11:34:56;;;;;;;4.00;2.80;;;;;;;22.88;55.28;101227.09;5045223;28;20203;-80
2021/06/23 11:37:25;;;;;;;4.38;3.17;;;;;;;22.71;56.13;101222.97;5043648;28;20203;-80
2021/06/23 11:40:07;;;;;;;4.65;3.00;;;;;;;22.75;56.84;101232.41;5044745;28;20306;-79
2021/06/23 11:42:33;;;;;;;5.28;2.97;;;;;;;22.67;57.00;101224.97;5045971;28;20215;-79
2021/06/23 11:45:00;;;;;;;4.35;3.20;;;;;;;22.54;55.68;101231.22;5042079;28;20302;-80
2021/06/23 11:47:28;;;;;;;3.63;3.25;;;;;;;22.58;56.45;101222.91;5046778;28;20207;-80